Aviation Digital Data Service (ADDS)

Output produced by METARs form (0850 UTC 19 April 2019)
found at http://www.aviationweather.gov/metar/data/
 
METAR text: YBAS 190830Z AUTO 06008KT 9999 // NCD 29/03 Q1016 RF00.0/000.0
Conditions at: YBAS (ALICE SPRINGS AR, AU) observed 0830 UTC 19 April 2019
Temperature: 29.0°C (84°F)
Dewpoint: 3.0°C (37°F) [RH = 19%]
Pressure (altimeter): 30.00 inches Hg (1016.0 mb)
Winds: from the ENE (60 degrees) at 9 MPH (8 knots; 4.1 m/s)
Visibility: 6 or more miles (10+ km)
Ceiling: at least 12,000 feet AGL
Clouds: sky clear below 12,000 feet AGL
Weather: no significant weather observed at this time

METAR text: YBAS 190800Z AUTO 07010KT 9999 // NCD 30/03 Q1016 RF00.0/000.0
Conditions at: YBAS (ALICE SPRINGS AR, AU) observed 0800 UTC 19 April 2019
Temperature: 30.0°C (86°F)
Dewpoint: 3.0°C (37°F) [RH = 18%]
Pressure (altimeter): 30.00 inches Hg (1016.0 mb)
Winds: from the ENE (70 degrees) at 12 MPH (10 knots; 5.1 m/s)
Visibility: 6 or more miles (10+ km)
Ceiling: at least 12,000 feet AGL
Clouds: sky clear below 12,000 feet AGL
Weather: no significant weather observed at this time

METAR text: YBAS 190730Z AUTO 03009KT 360V070 9999 // NCD 31/03 Q1016 RF00.0/000.0
Conditions at: YBAS (ALICE SPRINGS AR, AU) observed 0730 UTC 19 April 2019
Temperature: 31.0°C (88°F)
Dewpoint: 3.0°C (37°F) [RH = 17%]
Pressure (altimeter): 30.00 inches Hg (1016.0 mb)
Winds: from the NNE (30 degrees) at 10 MPH (9 knots; 4.6 m/s)
Visibility: 6 or more miles (10+ km)
Ceiling: at least 12,000 feet AGL
Clouds: sky clear below 12,000 feet AGL
Weather: no significant weather observed at this time

METAR text: YBAS 190700Z AUTO 07009KT 9999 // NCD 31/02 Q1016
Conditions at: YBAS (ALICE SPRINGS AR, AU) observed 0700 UTC 19 April 2019
Temperature: 31.0°C (88°F)
Dewpoint: 2.0°C (36°F) [RH = 16%]
Pressure (altimeter): 30.00 inches Hg (1016.0 mb)
Winds: from the ENE (70 degrees) at 10 MPH (9 knots; 4.6 m/s)
Visibility: 6 or more miles (10+ km)
Ceiling: at least 12,000 feet AGL
Clouds: sky clear below 12,000 feet AGL
Weather: no significant weather observed at this time

METAR text: YBAS 190630Z AUTO 09010KT 020V110 9999 // NCD 31/02 Q1016 RF00.0/000.0
Conditions at: YBAS (ALICE SPRINGS AR, AU) observed 0630 UTC 19 April 2019
Temperature: 31.0°C (88°F)
Dewpoint: 2.0°C (36°F) [RH = 16%]
Pressure (altimeter): 30.00 inches Hg (1016.0 mb)
Winds: from the E (90 degrees) at 12 MPH (10 knots; 5.1 m/s)
Visibility: 6 or more miles (10+ km)
Ceiling: at least 12,000 feet AGL
Clouds: sky clear below 12,000 feet AGL
Weather: no significant weather observed at this time

METAR text: YBAS 190600Z AUTO 08009KT 9999 // NCD 31/03 Q1016 RF00.0/000.0
Conditions at: YBAS (ALICE SPRINGS AR, AU) observed 0600 UTC 19 April 2019
Temperature: 31.0°C (88°F)
Dewpoint: 3.0°C (37°F) [RH = 17%]
Pressure (altimeter): 30.00 inches Hg (1016.0 mb)
Winds: from the E (80 degrees) at 10 MPH (9 knots; 4.6 m/s)
Visibility: 6 or more miles (10+ km)
Ceiling: at least 12,000 feet AGL
Clouds: sky clear below 12,000 feet AGL
Weather: no significant weather observed at this time

METAR text: YBAS 190530Z AUTO 08010KT 9999 // NCD 32/03 Q1016 RF00.0/000.0
Conditions at: YBAS (ALICE SPRINGS AR, AU) observed 0530 UTC 19 April 2019
Temperature: 32.0°C (90°F)
Dewpoint: 3.0°C (37°F) [RH = 16%]
Pressure (altimeter): 30.00 inches Hg (1016.0 mb)
Winds: from the E (80 degrees) at 12 MPH (10 knots; 5.1 m/s)
Visibility: 6 or more miles (10+ km)
Ceiling: at least 12,000 feet AGL
Clouds: sky clear below 12,000 feet AGL
Weather: no significant weather observed at this time

METAR text: YBAS 190500Z AUTO 06007KT 360V140 9999 // NCD 30/03 Q1017 RF00.0/000.0
Conditions at: YBAS (ALICE SPRINGS AR, AU) observed 0500 UTC 19 April 2019
Temperature: 30.0°C (86°F)
Dewpoint: 3.0°C (37°F) [RH = 18%]
Pressure (altimeter): 30.03 inches Hg (1017.0 mb)
Winds: from the ENE (60 degrees) at 8 MPH (7 knots; 3.6 m/s)
Visibility: 6 or more miles (10+ km)
Ceiling: at least 12,000 feet AGL
Clouds: sky clear below 12,000 feet AGL
Weather: no significant weather observed at this time

METAR text: YBAS 190430Z AUTO 36011KT 340V090 9999 // NCD 29/03 Q1017 RF00.0/000.0
Conditions at: YBAS (ALICE SPRINGS AR, AU) observed 0430 UTC 19 April 2019
Temperature: 29.0°C (84°F)
Dewpoint: 3.0°C (37°F) [RH = 19%]
Pressure (altimeter): 30.03 inches Hg (1017.0 mb)
Winds: from the N (360 degrees) at 13 MPH (11 knots; 5.7 m/s)
Visibility: 6 or more miles (10+ km)
Ceiling: at least 12,000 feet AGL
Clouds: sky clear below 12,000 feet AGL
Weather: no significant weather observed at this time

METAR text: YBAS 190400Z AUTO 35008KT 9999 // NCD 30/01 Q1017 RF00.0/000.0
Conditions at: YBAS (ALICE SPRINGS AR, AU) observed 0400 UTC 19 April 2019
Temperature: 30.0°C (86°F)
Dewpoint: 1.0°C (34°F) [RH = 15%]
Pressure (altimeter): 30.03 inches Hg (1017.0 mb)
Winds: from the N (350 degrees) at 9 MPH (8 knots; 4.1 m/s)
Visibility: 6 or more miles (10+ km)
Ceiling: at least 12,000 feet AGL
Clouds: sky clear below 12,000 feet AGL
Weather: no significant weather observed at this time

METAR text: YBAS 190330Z AUTO 03006KT 360V060 9999 // NCD 30/01 Q1018 RF00.0/000.0
Conditions at: YBAS (ALICE SPRINGS AR, AU) observed 0330 UTC 19 April 2019
Temperature: 30.0°C (86°F)
Dewpoint: 1.0°C (34°F) [RH = 15%]
Pressure (altimeter): 30.06 inches Hg (1018.0 mb)
Winds: from the NNE (30 degrees) at 7 MPH (6 knots; 3.1 m/s)
Visibility: 6 or more miles (10+ km)
Ceiling: at least 12,000 feet AGL
Clouds: sky clear below 12,000 feet AGL
Weather: no significant weather observed at this time

METAR text: YBAS 190300Z AUTO 05014KT 360V070 9999 // NCD 30/01 Q1019 RF00.0/000.0
Conditions at: YBAS (ALICE SPRINGS AR, AU) observed 0300 UTC 19 April 2019
Temperature: 30.0°C (86°F)
Dewpoint: 1.0°C (34°F) [RH = 15%]
Pressure (altimeter): 30.09 inches Hg (1019.0 mb)
Winds: from the NE (50 degrees) at 16 MPH (14 knots; 7.2 m/s)
Visibility: 6 or more miles (10+ km)
Ceiling: at least 12,000 feet AGL
Clouds: sky clear below 12,000 feet AGL
Weather: no significant weather observed at this time

METAR text: YBAS 190230Z AUTO 04012KT 9999 // NCD 29/02 Q1020 RF00.0/000.0
Conditions at: YBAS (ALICE SPRINGS AR, AU) observed 0230 UTC 19 April 2019
Temperature: 29.0°C (84°F)
Dewpoint: 2.0°C (36°F) [RH = 18%]
Pressure (altimeter): 30.12 inches Hg (1020.0 mb)
Winds: from the NE (40 degrees) at 14 MPH (12 knots; 6.2 m/s)
Visibility: 6 or more miles (10+ km)
Ceiling: at least 12,000 feet AGL
Clouds: sky clear below 12,000 feet AGL
Weather: no significant weather observed at this time

METAR text: YBAS 190200Z AUTO 08012KT 030V090 9999 // NCD 29/02 Q1020 RF00.0/000.0
Conditions at: YBAS (ALICE SPRINGS AR, AU) observed 0200 UTC 19 April 2019
Temperature: 29.0°C (84°F)
Dewpoint: 2.0°C (36°F) [RH = 18%]
Pressure (altimeter): 30.12 inches Hg (1020.0 mb)
Winds: from the E (80 degrees) at 14 MPH (12 knots; 6.2 m/s)
Visibility: 6 or more miles (10+ km)
Ceiling: at least 12,000 feet AGL
Clouds: sky clear below 12,000 feet AGL
Weather: no significant weather observed at this time

METAR text: YBAS 190130Z AUTO 05010KT 010V070 9999 // NCD 29/03 Q1020 RF00.0/000.0
Conditions at: YBAS (ALICE SPRINGS AR, AU) observed 0130 UTC 19 April 2019
Temperature: 29.0°C (84°F)
Dewpoint: 3.0°C (37°F) [RH = 19%]
Pressure (altimeter): 30.12 inches Hg (1020.0 mb)
Winds: from the NE (50 degrees) at 12 MPH (10 knots; 5.1 m/s)
Visibility: 6 or more miles (10+ km)
Ceiling: at least 12,000 feet AGL
Clouds: sky clear below 12,000 feet AGL
Weather: no significant weather observed at this time

METAR text: YBAS 190100Z AUTO 07014KT 9999 // NCD 27/03 Q1021 RF00.0/000.0
Conditions at: YBAS (ALICE SPRINGS AR, AU) observed 0100 UTC 19 April 2019
Temperature: 27.0°C (81°F)
Dewpoint: 3.0°C (37°F) [RH = 21%]
Pressure (altimeter): 30.15 inches Hg (1021.0 mb)
Winds: from the ENE (70 degrees) at 16 MPH (14 knots; 7.2 m/s)
Visibility: 6 or more miles (10+ km)
Ceiling: at least 12,000 feet AGL
Clouds: sky clear below 12,000 feet AGL
Weather: no significant weather observed at this time

METAR text: YBAS 190030Z AUTO 06011KT 9999 // NCD 27/03 Q1021 RF00.0/000.0
Conditions at: YBAS (ALICE SPRINGS AR, AU) observed 0030 UTC 19 April 2019
Temperature: 27.0°C (81°F)
Dewpoint: 3.0°C (37°F) [RH = 21%]
Pressure (altimeter): 30.15 inches Hg (1021.0 mb)
Winds: from the ENE (60 degrees) at 13 MPH (11 knots; 5.7 m/s)
Visibility: 6 or more miles (10+ km)
Ceiling: at least 12,000 feet AGL
Clouds: sky clear below 12,000 feet AGL
Weather: no significant weather observed at this time

METAR text: YBAS 190000Z AUTO 06011KT 9999 // NCD 26/04 Q1021 RF00.0/000.0
Conditions at: YBAS (ALICE SPRINGS AR, AU) observed 0000 UTC 19 April 2019
Temperature: 26.0°C (79°F)
Dewpoint: 4.0°C (39°F) [RH = 24%]
Pressure (altimeter): 30.15 inches Hg (1021.0 mb)
Winds: from the ENE (60 degrees) at 13 MPH (11 knots; 5.7 m/s)
Visibility: 6 or more miles (10+ km)
Ceiling: at least 12,000 feet AGL
Clouds: sky clear below 12,000 feet AGL
Weather: no significant weather observed at this time

METAR text: YBAS 182330Z AUTO 06009KT 9999 // NCD 25/04 Q1021 RF00.0/000.0
Conditions at: YBAS (ALICE SPRINGS AR, AU) observed 2330 UTC 18 April 2019
Temperature: 25.0°C (77°F)
Dewpoint: 4.0°C (39°F) [RH = 26%]
Pressure (altimeter): 30.15 inches Hg (1021.0 mb)
Winds: from the ENE (60 degrees) at 10 MPH (9 knots; 4.6 m/s)
Visibility: 6 or more miles (10+ km)
Ceiling: at least 12,000 feet AGL
Clouds: sky clear below 12,000 feet AGL
Weather: no significant weather observed at this time

METAR text: YBAS 182300Z AUTO 11004KT 9999 // NCD 21/01 Q1021 RF00.0/000.0
Conditions at: YBAS (ALICE SPRINGS AR, AU) observed 2300 UTC 18 April 2019
Temperature: 21.0°C (70°F)
Dewpoint: 1.0°C (34°F) [RH = 26%]
Pressure (altimeter): 30.15 inches Hg (1021.0 mb)
Winds: from the ESE (110 degrees) at 5 MPH (4 knots; 2.1 m/s)
Visibility: 6 or more miles (10+ km)
Ceiling: at least 12,000 feet AGL
Clouds: sky clear below 12,000 feet AGL
Weather: no significant weather observed at this time

METAR text: YBAS 182230Z AUTO 00000KT 9999 // NCD 16/M00 Q1021 RF00.0/000.0
Conditions at: YBAS (ALICE SPRINGS AR, AU) observed 2230 UTC 18 April 2019
Temperature: 16.0°C (61°F)
Dewpoint: 0.0°C (32°F) [RH = 34%]
Pressure (altimeter): 30.15 inches Hg (1021.0 mb)
Winds: calm
Visibility: 6 or more miles (10+ km)
Ceiling: at least 12,000 feet AGL
Clouds: sky clear below 12,000 feet AGL
Weather: no significant weather observed at this time

METAR text: YBAS 182200Z AUTO 00000KT 9999 // NCD 13/M02 Q1021 RF00.0/000.0
Conditions at: YBAS (ALICE SPRINGS AR, AU) observed 2200 UTC 18 April 2019
Temperature: 13.0°C (55°F)
Dewpoint: -2.0°C (28°F) [RH = 35%]
Pressure (altimeter): 30.15 inches Hg (1021.0 mb)
Winds: calm
Visibility: 6 or more miles (10+ km)
Ceiling: at least 12,000 feet AGL
Clouds: sky clear below 12,000 feet AGL
Weather: no significant weather observed at this time

METAR text: YBAS 182130Z AUTO 00000KT 9999 // NCD 12/M01 Q1021 RF00.0/000.0
Conditions at: YBAS (ALICE SPRINGS AR, AU) observed 2130 UTC 18 April 2019
Temperature: 12.0°C (54°F)
Dewpoint: -1.0°C (30°F) [RH = 40%]
Pressure (altimeter): 30.15 inches Hg (1021.0 mb)
Winds: calm
Visibility: 6 or more miles (10+ km)
Ceiling: at least 12,000 feet AGL
Clouds: sky clear below 12,000 feet AGL
Weather: no significant weather observed at this time

METAR text: YBAS 182100Z AUTO 31003KT 9999 // NCD 11/M02 Q1020 RF00.0/000.0
Conditions at: YBAS (ALICE SPRINGS AR, AU) observed 2100 UTC 18 April 2019
Temperature: 11.0°C (52°F)
Dewpoint: -2.0°C (28°F) [RH = 40%]
Pressure (altimeter): 30.12 inches Hg (1020.0 mb)
Winds: from the NW (310 degrees) at 3 MPH (3 knots; 1.5 m/s)
Visibility: 6 or more miles (10+ km)
Ceiling: at least 12,000 feet AGL
Clouds: sky clear below 12,000 feet AGL
Weather: no significant weather observed at this time

METAR text: YBAS 182030Z AUTO 30003KT 9999 // NCD 12/M02 Q1020 RF00.0/000.0
Conditions at: YBAS (ALICE SPRINGS AR, AU) observed 2030 UTC 18 April 2019
Temperature: 12.0°C (54°F)
Dewpoint: -2.0°C (28°F) [RH = 38%]
Pressure (altimeter): 30.12 inches Hg (1020.0 mb)
Winds: from the WNW (300 degrees) at 3 MPH (3 knots; 1.5 m/s)
Visibility: 6 or more miles (10+ km)
Ceiling: at least 12,000 feet AGL
Clouds: sky clear below 12,000 feet AGL
Weather: no significant weather observed at this time

METAR text: YBAS 182000Z AUTO 33004KT 9999 // NCD 13/M01 Q1020 RF00.0/000.0
Conditions at: YBAS (ALICE SPRINGS AR, AU) observed 2000 UTC 18 April 2019
Temperature: 13.0°C (55°F)
Dewpoint: -1.0°C (30°F) [RH = 38%]
Pressure (altimeter): 30.12 inches Hg (1020.0 mb)
Winds: from the NNW (330 degrees) at 5 MPH (4 knots; 2.1 m/s)
Visibility: 6 or more miles (10+ km)
Ceiling: at least 12,000 feet AGL
Clouds: sky clear below 12,000 feet AGL
Weather: no significant weather observed at this time

METAR text: YBAS 181930Z AUTO 34005KT 9999 // NCD 13/M00 Q1020 RF00.0/000.0
Conditions at: YBAS (ALICE SPRINGS AR, AU) observed 1930 UTC 18 April 2019
Temperature: 13.0°C (55°F)
Dewpoint: 0.0°C (32°F) [RH = 41%]
Pressure (altimeter): 30.12 inches Hg (1020.0 mb)
Winds: from the NNW (340 degrees) at 6 MPH (5 knots; 2.6 m/s)
Visibility: 6 or more miles (10+ km)
Ceiling: at least 12,000 feet AGL
Clouds: sky clear below 12,000 feet AGL
Weather: no significant weather observed at this time

METAR text: YBAS 181900Z AUTO 00000KT 9999 // NCD 13/M02 Q1020 RF00.0/000.0
Conditions at: YBAS (ALICE SPRINGS AR, AU) observed 1900 UTC 18 April 2019
Temperature: 13.0°C (55°F)
Dewpoint: -2.0°C (28°F) [RH = 35%]
Pressure (altimeter): 30.12 inches Hg (1020.0 mb)
Winds: calm
Visibility: 6 or more miles (10+ km)
Ceiling: at least 12,000 feet AGL
Clouds: sky clear below 12,000 feet AGL
Weather: no significant weather observed at this time

METAR text: YBAS 181830Z AUTO 24004KT 9999 // NCD 13/M02 Q1020 RF00.0/000.0
Conditions at: YBAS (ALICE SPRINGS AR, AU) observed 1830 UTC 18 April 2019
Temperature: 13.0°C (55°F)
Dewpoint: -2.0°C (28°F) [RH = 35%]
Pressure (altimeter): 30.12 inches Hg (1020.0 mb)
Winds: from the WSW (240 degrees) at 5 MPH (4 knots; 2.1 m/s)
Visibility: 6 or more miles (10+ km)
Ceiling: at least 12,000 feet AGL
Clouds: sky clear below 12,000 feet AGL
Weather: no significant weather observed at this time

METAR text: YBAS 181800Z AUTO 31003KT 9999 // NCD 14/M02 Q1020 RF00.0/000.0
Conditions at: YBAS (ALICE SPRINGS AR, AU) observed 1800 UTC 18 April 2019
Temperature: 14.0°C (57°F)
Dewpoint: -2.0°C (28°F) [RH = 33%]
Pressure (altimeter): 30.12 inches Hg (1020.0 mb)
Winds: from the NW (310 degrees) at 3 MPH (3 knots; 1.5 m/s)
Visibility: 6 or more miles (10+ km)
Ceiling: at least 12,000 feet AGL
Clouds: sky clear below 12,000 feet AGL
Weather: no significant weather observed at this time

METAR text: YBAS 181730Z AUTO 26004KT 9999 // NCD 15/M01 Q1020 RF00.0/000.0
Conditions at: YBAS (ALICE SPRINGS AR, AU) observed 1730 UTC 18 April 2019
Temperature: 15.0°C (59°F)
Dewpoint: -1.0°C (30°F) [RH = 33%]
Pressure (altimeter): 30.12 inches Hg (1020.0 mb)
Winds: from the W (260 degrees) at 5 MPH (4 knots; 2.1 m/s)
Visibility: 6 or more miles (10+ km)
Ceiling: at least 12,000 feet AGL
Clouds: sky clear below 12,000 feet AGL
Weather: no significant weather observed at this time

METAR text: YBAS 181700Z AUTO 27005KT 9999 // NCD 16/M01 Q1020 RF00.0/000.0
Conditions at: YBAS (ALICE SPRINGS AR, AU) observed 1700 UTC 18 April 2019
Temperature: 16.0°C (61°F)
Dewpoint: -1.0°C (30°F) [RH = 31%]
Pressure (altimeter): 30.12 inches Hg (1020.0 mb)
Winds: from the W (270 degrees) at 6 MPH (5 knots; 2.6 m/s)
Visibility: 6 or more miles (10+ km)
Ceiling: at least 12,000 feet AGL
Clouds: sky clear below 12,000 feet AGL
Weather: no significant weather observed at this time

METAR text: YBAS 181630Z AUTO 27004KT 9999 // NCD 16/M00 Q1020 RF00.0/000.0
Conditions at: YBAS (ALICE SPRINGS AR, AU) observed 1630 UTC 18 April 2019
Temperature: 16.0°C (61°F)
Dewpoint: 0.0°C (32°F) [RH = 34%]
Pressure (altimeter): 30.12 inches Hg (1020.0 mb)
Winds: from the W (270 degrees) at 5 MPH (4 knots; 2.1 m/s)
Visibility: 6 or more miles (10+ km)
Ceiling: at least 12,000 feet AGL
Clouds: sky clear below 12,000 feet AGL
Weather: no significant weather observed at this time

METAR text: YBAS 181600Z AUTO 00000KT 9999 // NCD 16/M02 Q1020 RF00.0/000.0
Conditions at: YBAS (ALICE SPRINGS AR, AU) observed 1600 UTC 18 April 2019
Temperature: 16.0°C (61°F)
Dewpoint: -2.0°C (28°F) [RH = 29%]
Pressure (altimeter): 30.12 inches Hg (1020.0 mb)
Winds: calm
Visibility: 6 or more miles (10+ km)
Ceiling: at least 12,000 feet AGL
Clouds: sky clear below 12,000 feet AGL
Weather: no significant weather observed at this time

METAR text: YBAS 181530Z AUTO 00000KT 9999 // NCD 17/M00 Q1020 RF00.0/000.0
Conditions at: YBAS (ALICE SPRINGS AR, AU) observed 1530 UTC 18 April 2019
Temperature: 17.0°C (63°F)
Dewpoint: 0.0°C (32°F) [RH = 32%]
Pressure (altimeter): 30.12 inches Hg (1020.0 mb)
Winds: calm
Visibility: 6 or more miles (10+ km)
Ceiling: at least 12,000 feet AGL
Clouds: sky clear below 12,000 feet AGL
Weather: no significant weather observed at this time

METAR text: YBAS 181500Z AUTO 00000KT 9999 // NCD 18/00 Q1021 RF00.0/000.0
Conditions at: YBAS (ALICE SPRINGS AR, AU) observed 1500 UTC 18 April 2019
Temperature: 18.0°C (64°F)
Dewpoint: 0.0°C (32°F) [RH = 30%]
Pressure (altimeter): 30.15 inches Hg (1021.0 mb)
Winds: calm
Visibility: 6 or more miles (10+ km)
Ceiling: at least 12,000 feet AGL
Clouds: sky clear below 12,000 feet AGL
Weather: no significant weather observed at this time

METAR text: YBAS 181430Z AUTO 00000KT 9999 // NCD 17/M01 Q1021 RF00.0/000.0
Conditions at: YBAS (ALICE SPRINGS AR, AU) observed 1430 UTC 18 April 2019
Temperature: 17.0°C (63°F)
Dewpoint: -1.0°C (30°F) [RH = 29%]
Pressure (altimeter): 30.15 inches Hg (1021.0 mb)
Winds: calm
Visibility: 6 or more miles (10+ km)
Ceiling: at least 12,000 feet AGL
Clouds: sky clear below 12,000 feet AGL
Weather: no significant weather observed at this time

METAR text: YBAS 181400Z AUTO 14005KT 9999 // NCD 19/M00 Q1021 RF00.0/000.0
Conditions at: YBAS (ALICE SPRINGS AR, AU) observed 1400 UTC 18 April 2019
Temperature: 19.0°C (66°F)
Dewpoint: 0.0°C (32°F) [RH = 28%]
Pressure (altimeter): 30.15 inches Hg (1021.0 mb)
Winds: from the SE (140 degrees) at 6 MPH (5 knots; 2.6 m/s)
Visibility: 6 or more miles (10+ km)
Ceiling: at least 12,000 feet AGL
Clouds: sky clear below 12,000 feet AGL
Weather: no significant weather observed at this time

METAR text: YBAS 181330Z AUTO 13003KT 9999 // NCD 19/M00 Q1021 RF00.0/000.0
Conditions at: YBAS (ALICE SPRINGS AR, AU) observed 1330 UTC 18 April 2019
Temperature: 19.0°C (66°F)
Dewpoint: 0.0°C (32°F) [RH = 28%]
Pressure (altimeter): 30.15 inches Hg (1021.0 mb)
Winds: from the SE (130 degrees) at 3 MPH (3 knots; 1.5 m/s)
Visibility: 6 or more miles (10+ km)
Ceiling: at least 12,000 feet AGL
Clouds: sky clear below 12,000 feet AGL
Weather: no significant weather observed at this time

METAR text: YBAS 181300Z AUTO 08003KT 9999 // NCD 20/M01 Q1021 RF00.0/000.0
Conditions at: YBAS (ALICE SPRINGS AR, AU) observed 1300 UTC 18 April 2019
Temperature: 20.0°C (68°F)
Dewpoint: -1.0°C (30°F) [RH = 24%]
Pressure (altimeter): 30.15 inches Hg (1021.0 mb)
Winds: from the E (80 degrees) at 3 MPH (3 knots; 1.5 m/s)
Visibility: 6 or more miles (10+ km)
Ceiling: at least 12,000 feet AGL
Clouds: sky clear below 12,000 feet AGL
Weather: no significant weather observed at this time

METAR text: YBAS 181230Z AUTO 06004KT 9999 // NCD 22/01 Q1021 RF00.0/000.0
Conditions at: YBAS (ALICE SPRINGS AR, AU) observed 1230 UTC 18 April 2019
Temperature: 22.0°C (72°F)
Dewpoint: 1.0°C (34°F) [RH = 25%]
Pressure (altimeter): 30.15 inches Hg (1021.0 mb)
Winds: from the ENE (60 degrees) at 5 MPH (4 knots; 2.1 m/s)
Visibility: 6 or more miles (10+ km)
Ceiling: at least 12,000 feet AGL
Clouds: sky clear below 12,000 feet AGL
Weather: no significant weather observed at this time

METAR text: YBAS 181200Z AUTO 06005KT 9999 // NCD 23/01 Q1020 RF00.0/000.0
Conditions at: YBAS (ALICE SPRINGS AR, AU) observed 1200 UTC 18 April 2019
Temperature: 23.0°C (73°F)
Dewpoint: 1.0°C (34°F) [RH = 23%]
Pressure (altimeter): 30.12 inches Hg (1020.0 mb)
Winds: from the ENE (60 degrees) at 6 MPH (5 knots; 2.6 m/s)
Visibility: 6 or more miles (10+ km)
Ceiling: at least 12,000 feet AGL
Clouds: sky clear below 12,000 feet AGL
Weather: no significant weather observed at this time

METAR text: YBAS 181130Z AUTO 11006KT 9999 // NCD 24/01 Q1020 RF00.0/000.0
Conditions at: YBAS (ALICE SPRINGS AR, AU) observed 1130 UTC 18 April 2019
Temperature: 24.0°C (75°F)
Dewpoint: 1.0°C (34°F) [RH = 22%]
Pressure (altimeter): 30.12 inches Hg (1020.0 mb)
Winds: from the ESE (110 degrees) at 7 MPH (6 knots; 3.1 m/s)
Visibility: 6 or more miles (10+ km)
Ceiling: at least 12,000 feet AGL
Clouds: sky clear below 12,000 feet AGL
Weather: no significant weather observed at this time

METAR text: YBAS 181100Z AUTO 11007KT 9999 // NCD 25/01 Q1020 RF00.0/000.0
Conditions at: YBAS (ALICE SPRINGS AR, AU) observed 1100 UTC 18 April 2019
Temperature: 25.0°C (77°F)
Dewpoint: 1.0°C (34°F) [RH = 21%]
Pressure (altimeter): 30.12 inches Hg (1020.0 mb)
Winds: from the ESE (110 degrees) at 8 MPH (7 knots; 3.6 m/s)
Visibility: 6 or more miles (10+ km)
Ceiling: at least 12,000 feet AGL
Clouds: sky clear below 12,000 feet AGL
Weather: no significant weather observed at this time

METAR text: YBAS 181030Z AUTO 12007KT 9999 // NCD 26/01 Q1020 RF00.0/000.0
Conditions at: YBAS (ALICE SPRINGS AR, AU) observed 1030 UTC 18 April 2019
Temperature: 26.0°C (79°F)
Dewpoint: 1.0°C (34°F) [RH = 20%]
Pressure (altimeter): 30.12 inches Hg (1020.0 mb)
Winds: from the ESE (120 degrees) at 8 MPH (7 knots; 3.6 m/s)
Visibility: 6 or more miles (10+ km)
Ceiling: at least 12,000 feet AGL
Clouds: sky clear below 12,000 feet AGL
Weather: no significant weather observed at this time

METAR text: YBAS 181000Z AUTO 10006KT 9999 // NCD 26/01 Q1019 RF00.0/000.0
Conditions at: YBAS (ALICE SPRINGS AR, AU) observed 1000 UTC 18 April 2019
Temperature: 26.0°C (79°F)
Dewpoint: 1.0°C (34°F) [RH = 20%]
Pressure (altimeter): 30.09 inches Hg (1019.0 mb)
Winds: from the E (100 degrees) at 7 MPH (6 knots; 3.1 m/s)
Visibility: 6 or more miles (10+ km)
Ceiling: at least 12,000 feet AGL
Clouds: sky clear below 12,000 feet AGL
Weather: no significant weather observed at this time

METAR text: YBAS 180930Z AUTO 10007KT 9999 // NCD 28/01 Q1019 RF00.0/000.0
Conditions at: YBAS (ALICE SPRINGS AR, AU) observed 0930 UTC 18 April 2019
Temperature: 28.0°C (82°F)
Dewpoint: 1.0°C (34°F) [RH = 17%]
Pressure (altimeter): 30.09 inches Hg (1019.0 mb)
Winds: from the E (100 degrees) at 8 MPH (7 knots; 3.6 m/s)
Visibility: 6 or more miles (10+ km)
Ceiling: at least 12,000 feet AGL
Clouds: sky clear below 12,000 feet AGL
Weather: no significant weather observed at this time

METAR text: YBAS 180900Z AUTO 09011KT 9999 // NCD 29/M00 Q1018 RF00.0/000.0
Conditions at: YBAS (ALICE SPRINGS AR, AU) observed 0900 UTC 18 April 2019
Temperature: 29.0°C (84°F)
Dewpoint: 0.0°C (32°F) [RH = 15%]
Pressure (altimeter): 30.06 inches Hg (1018.0 mb)
Winds: from the E (90 degrees) at 13 MPH (11 knots; 5.7 m/s)
Visibility: 6 or more miles (10+ km)
Ceiling: at least 12,000 feet AGL
Clouds: sky clear below 12,000 feet AGL
Weather: no significant weather observed at this time

METAR text: YBAS 180830Z AUTO 09011KT 9999 // NCD 30/M00 Q1018 RF00.0/000.0
Conditions at: YBAS (ALICE SPRINGS AR, AU) observed 0830 UTC 18 April 2019
Temperature: 30.0°C (86°F)
Dewpoint: 0.0°C (32°F) [RH = 14%]
Pressure (altimeter): 30.06 inches Hg (1018.0 mb)
Winds: from the E (90 degrees) at 13 MPH (11 knots; 5.7 m/s)
Visibility: 6 or more miles (10+ km)
Ceiling: at least 12,000 feet AGL
Clouds: sky clear below 12,000 feet AGL
Weather: no significant weather observed at this time

METAR text: YBAS 180800Z AUTO 08013KT 9999 // NCD 31/00 Q1018 RF00.0/000.0
Conditions at: YBAS (ALICE SPRINGS AR, AU) observed 0800 UTC 18 April 2019
Temperature: 31.0°C (88°F)
Dewpoint: 0.0°C (32°F) [RH = 14%]
Pressure (altimeter): 30.06 inches Hg (1018.0 mb)
Winds: from the E (80 degrees) at 15 MPH (13 knots; 6.7 m/s)
Visibility: 6 or more miles (10+ km)
Ceiling: at least 12,000 feet AGL
Clouds: sky clear below 12,000 feet AGL
Weather: no significant weather observed at this time

METAR text: YBAS 180730Z AUTO 08011KT 9999 // NCD 31/01 Q1018 RF00.0/000.0
Conditions at: YBAS (ALICE SPRINGS AR, AU) observed 0730 UTC 18 April 2019
Temperature: 31.0°C (88°F)
Dewpoint: 1.0°C (34°F) [RH = 15%]
Pressure (altimeter): 30.06 inches Hg (1018.0 mb)
Winds: from the E (80 degrees) at 13 MPH (11 knots; 5.7 m/s)
Visibility: 6 or more miles (10+ km)
Ceiling: at least 12,000 feet AGL
Clouds: sky clear below 12,000 feet AGL
Weather: no significant weather observed at this time

METAR text: YBAS 180700Z AUTO 09013KT 9999 // NCD 32/01 Q1018 RF00.0/000.0
Conditions at: YBAS (ALICE SPRINGS AR, AU) observed 0700 UTC 18 April 2019
Temperature: 32.0°C (90°F)
Dewpoint: 1.0°C (34°F) [RH = 14%]
Pressure (altimeter): 30.06 inches Hg (1018.0 mb)
Winds: from the E (90 degrees) at 15 MPH (13 knots; 6.7 m/s)
Visibility: 6 or more miles (10+ km)
Ceiling: at least 12,000 feet AGL
Clouds: sky clear below 12,000 feet AGL
Weather: no significant weather observed at this time

METAR text: YBAS 180630Z AUTO 08012KT 9999 // NCD 32/01 Q1018 RF00.0/000.0
Conditions at: YBAS (ALICE SPRINGS AR, AU) observed 0630 UTC 18 April 2019
Temperature: 32.0°C (90°F)
Dewpoint: 1.0°C (34°F) [RH = 14%]
Pressure (altimeter): 30.06 inches Hg (1018.0 mb)
Winds: from the E (80 degrees) at 14 MPH (12 knots; 6.2 m/s)
Visibility: 6 or more miles (10+ km)
Ceiling: at least 12,000 feet AGL
Clouds: sky clear below 12,000 feet AGL
Weather: no significant weather observed at this time

METAR text: YBAS 180600Z AUTO 09014KT 9999 // NCD 32/01 Q1018 RF00.0/000.0
Conditions at: YBAS (ALICE SPRINGS AR, AU) observed 0600 UTC 18 April 2019
Temperature: 32.0°C (90°F)
Dewpoint: 1.0°C (34°F) [RH = 14%]
Pressure (altimeter): 30.06 inches Hg (1018.0 mb)
Winds: from the E (90 degrees) at 16 MPH (14 knots; 7.2 m/s)
Visibility: 6 or more miles (10+ km)
Ceiling: at least 12,000 feet AGL
Clouds: sky clear below 12,000 feet AGL
Weather: no significant weather observed at this time

METAR text: YBAS 180530Z AUTO 08014KT 9999 // NCD 32/01 Q1018 RF00.0/000.0
Conditions at: YBAS (ALICE SPRINGS AR, AU) observed 0530 UTC 18 April 2019
Temperature: 32.0°C (90°F)
Dewpoint: 1.0°C (34°F) [RH = 14%]
Pressure (altimeter): 30.06 inches Hg (1018.0 mb)
Winds: from the E (80 degrees) at 16 MPH (14 knots; 7.2 m/s)
Visibility: 6 or more miles (10+ km)
Ceiling: at least 12,000 feet AGL
Clouds: sky clear below 12,000 feet AGL
Weather: no significant weather observed at this time

METAR text: YBAS 180500Z AUTO 08013KT 9999 // NCD 32/02 Q1018 RF00.0/000.0
Conditions at: YBAS (ALICE SPRINGS AR, AU) observed 0500 UTC 18 April 2019
Temperature: 32.0°C (90°F)
Dewpoint: 2.0°C (36°F) [RH = 15%]
Pressure (altimeter): 30.06 inches Hg (1018.0 mb)
Winds: from the E (80 degrees) at 15 MPH (13 knots; 6.7 m/s)
Visibility: 6 or more miles (10+ km)
Ceiling: at least 12,000 feet AGL
Clouds: sky clear below 12,000 feet AGL
Weather: no significant weather observed at this time

METAR text: YBAS 180430Z AUTO 07013KT 9999 // NCD 31/03 Q1019 RF00.0/000.0
Conditions at: YBAS (ALICE SPRINGS AR, AU) observed 0430 UTC 18 April 2019
Temperature: 31.0°C (88°F)
Dewpoint: 3.0°C (37°F) [RH = 17%]
Pressure (altimeter): 30.09 inches Hg (1019.0 mb)
Winds: from the ENE (70 degrees) at 15 MPH (13 knots; 6.7 m/s)
Visibility: 6 or more miles (10+ km)
Ceiling: at least 12,000 feet AGL
Clouds: sky clear below 12,000 feet AGL
Weather: no significant weather observed at this time

METAR text: YBAS 180400Z AUTO 08011KT 050V110 9999 // NCD 31/04 Q1019 RF00.0/000.0
Conditions at: YBAS (ALICE SPRINGS AR, AU) observed 0400 UTC 18 April 2019
Temperature: 31.0°C (88°F)
Dewpoint: 4.0°C (39°F) [RH = 18%]
Pressure (altimeter): 30.09 inches Hg (1019.0 mb)
Winds: from the E (80 degrees) at 13 MPH (11 knots; 5.7 m/s)
Visibility: 6 or more miles (10+ km)
Ceiling: at least 12,000 feet AGL
Clouds: sky clear below 12,000 feet AGL
Weather: no significant weather observed at this time

METAR text: YBAS 180330Z AUTO 07016KT 9999 // NCD 32/04 Q1019 RF00.0/000.0
Conditions at: YBAS (ALICE SPRINGS AR, AU) observed 0330 UTC 18 April 2019
Temperature: 32.0°C (90°F)
Dewpoint: 4.0°C (39°F) [RH = 17%]
Pressure (altimeter): 30.09 inches Hg (1019.0 mb)
Winds: from the ENE (70 degrees) at 18 MPH (16 knots; 8.2 m/s)
Visibility: 6 or more miles (10+ km)
Ceiling: at least 12,000 feet AGL
Clouds: sky clear below 12,000 feet AGL
Weather: no significant weather observed at this time

METAR text: YBAS 180300Z AUTO 09013KT 9999 // NCD 30/04 Q1020 RF00.0/000.0
Conditions at: YBAS (ALICE SPRINGS AR, AU) observed 0300 UTC 18 April 2019
Temperature: 30.0°C (86°F)
Dewpoint: 4.0°C (39°F) [RH = 19%]
Pressure (altimeter): 30.12 inches Hg (1020.0 mb)
Winds: from the E (90 degrees) at 15 MPH (13 knots; 6.7 m/s)
Visibility: 6 or more miles (10+ km)
Ceiling: at least 12,000 feet AGL
Clouds: sky clear below 12,000 feet AGL
Weather: no significant weather observed at this time

METAR text: YBAS 180230Z AUTO 10016G26KT 9999 // NCD 30/05 Q1021 RF00.0/000.0
Conditions at: YBAS (ALICE SPRINGS AR, AU) observed 0230 UTC 18 April 2019
Temperature: 30.0°C (86°F)
Dewpoint: 5.0°C (41°F) [RH = 21%]
Pressure (altimeter): 30.15 inches Hg (1021.0 mb)
Winds: from the E (100 degrees) at 18 MPH (16 knots; 8.2 m/s)
gusting to 30 MPH (26 knots; 13.4 m/s)
Visibility: 6 or more miles (10+ km)
Ceiling: at least 12,000 feet AGL
Clouds: sky clear below 12,000 feet AGL
Weather: no significant weather observed at this time

METAR text: YBAS 180221Z AUTO 08015G30KT 9999 // NCD 30/04 Q1021 RF00/0/000/0
Conditions at: YBAS (ALICE SPRINGS AR, AU) observed 0221 UTC 18 April 2019
Temperature: 30.0°C (86°F)
Dewpoint: 4.0°C (39°F) [RH = 19%]
Pressure (altimeter): 30.15 inches Hg (1021.0 mb)
Winds: from the E (80 degrees) at 17 MPH (15 knots; 7.7 m/s)
gusting to 34 MPH (30 knots; 15.4 m/s)
Visibility: 6 or more miles (10+ km)
Ceiling: at least 12,000 feet AGL
Clouds: sky clear below 12,000 feet AGL
Weather: no significant weather observed at this time

METAR text: YBAS 180200Z 11015KT 060V120 CAVOK 30/04 Q1021 RF00.0/000.0 DUST DEVIL IN SOUTH WESTERN CORNER OF RUNWAYS
Conditions at: YBAS (ALICE SPRINGS AR, AU) observed 0200 UTC 18 April 2019
Temperature: 30.0°C (86°F)
Dewpoint: 4.0°C (39°F) [RH = 19%]
Pressure (altimeter): 30.15 inches Hg (1021.0 mb)
Winds: from the ESE (110 degrees) at 17 MPH (15 knots; 7.7 m/s)
Visibility: 6 or more miles (10+ km)
Ceiling: ceiling and visibility are OK
Clouds: unknown
Weather: DU  (widespread dust)

METAR text: YBAS 180130Z 09013KT CAVOK 29/05 Q1022
Conditions at: YBAS (ALICE SPRINGS AR, AU) observed 0130 UTC 18 April 2019
Temperature: 29.0°C (84°F)
Dewpoint: 5.0°C (41°F) [RH = 22%]
Pressure (altimeter): 30.18 inches Hg (1022.0 mb)
Winds: from the E (90 degrees) at 15 MPH (13 knots; 6.7 m/s)
Visibility: 6 or more miles (10+ km)
Ceiling: ceiling and visibility are OK
Clouds: unknown
Weather: no significant weather observed at this time

METAR text: YBAS 180100Z 06009KT 050V120 CAVOK 29/06 Q1022 RF00.0/000.0
Conditions at: YBAS (ALICE SPRINGS AR, AU) observed 0100 UTC 18 April 2019
Temperature: 29.0°C (84°F)
Dewpoint: 6.0°C (43°F) [RH = 23%]
Pressure (altimeter): 30.18 inches Hg (1022.0 mb)
Winds: from the ENE (60 degrees) at 10 MPH (9 knots; 4.6 m/s)
Visibility: 6 or more miles (10+ km)
Ceiling: ceiling and visibility are OK
Clouds: unknown
Weather: no significant weather observed at this time

METAR text: YBAS 180030Z 07011KT CAVOK 27/06 Q1022
Conditions at: YBAS (ALICE SPRINGS AR, AU) observed 0030 UTC 18 April 2019
Temperature: 27.0°C (81°F)
Dewpoint: 6.0°C (43°F) [RH = 26%]
Pressure (altimeter): 30.18 inches Hg (1022.0 mb)
Winds: from the ENE (70 degrees) at 13 MPH (11 knots; 5.7 m/s)
Visibility: 6 or more miles (10+ km)
Ceiling: ceiling and visibility are OK
Clouds: unknown
Weather: no significant weather observed at this time

METAR text: YBAS 180000Z 04007KT CAVOK 27/07 Q1022
Conditions at: YBAS (ALICE SPRINGS AR, AU) observed 0000 UTC 18 April 2019
Temperature: 27.0°C (81°F)
Dewpoint: 7.0°C (45°F) [RH = 28%]
Pressure (altimeter): 30.18 inches Hg (1022.0 mb)
Winds: from the NE (40 degrees) at 8 MPH (7 knots; 3.6 m/s)
Visibility: 6 or more miles (10+ km)
Ceiling: ceiling and visibility are OK
Clouds: unknown
Weather: no significant weather observed at this time

METAR text: YBAS 172330Z 10004KT CAVOK 24/05 Q1022
Conditions at: YBAS (ALICE SPRINGS AR, AU) observed 2330 UTC 17 April 2019
Temperature: 24.0°C (75°F)
Dewpoint: 5.0°C (41°F) [RH = 29%]
Pressure (altimeter): 30.18 inches Hg (1022.0 mb)
Winds: from the E (100 degrees) at 5 MPH (4 knots; 2.1 m/s)
Visibility: 6 or more miles (10+ km)
Ceiling: ceiling and visibility are OK
Clouds: unknown
Weather: no significant weather observed at this time

METAR text: YBAS 172300Z 00000KT CAVOK 22/04 Q1022
Conditions at: YBAS (ALICE SPRINGS AR, AU) observed 2300 UTC 17 April 2019
Temperature: 22.0°C (72°F)
Dewpoint: 4.0°C (39°F) [RH = 31%]
Pressure (altimeter): 30.18 inches Hg (1022.0 mb)
Winds: calm
Visibility: 6 or more miles (10+ km)
Ceiling: ceiling and visibility are OK
Clouds: unknown
Weather: no significant weather observed at this time

METAR text: YBAS 172230Z 26001KT CAVOK 19/03 Q1021
Conditions at: YBAS (ALICE SPRINGS AR, AU) observed 2230 UTC 17 April 2019
Temperature: 19.0°C (66°F)
Dewpoint: 3.0°C (37°F) [RH = 34%]
Pressure (altimeter): 30.15 inches Hg (1021.0 mb)
Winds: from the W (260 degrees) at 1 MPH (1 knots; 0.5 m/s)
Visibility: 6 or more miles (10+ km)
Ceiling: ceiling and visibility are OK
Clouds: unknown
Weather: no significant weather observed at this time

METAR text: YBAS 172200Z AUTO 00000KT 9999 // NCD 16/02 Q1021 RF00.0/000.0
Conditions at: YBAS (ALICE SPRINGS AR, AU) observed 2200 UTC 17 April 2019
Temperature: 16.0°C (61°F)
Dewpoint: 2.0°C (36°F) [RH = 39%]
Pressure (altimeter): 30.15 inches Hg (1021.0 mb)
Winds: calm
Visibility: 6 or more miles (10+ km)
Ceiling: at least 12,000 feet AGL
Clouds: sky clear below 12,000 feet AGL
Weather: no significant weather observed at this time

METAR text: YBAS 172130Z AUTO 00000KT 9999 // NCD 15/01 Q1021 RF00.0/000.0
Conditions at: YBAS (ALICE SPRINGS AR, AU) observed 2130 UTC 17 April 2019
Temperature: 15.0°C (59°F)
Dewpoint: 1.0°C (34°F) [RH = 39%]
Pressure (altimeter): 30.15 inches Hg (1021.0 mb)
Winds: calm
Visibility: 6 or more miles (10+ km)
Ceiling: at least 12,000 feet AGL
Clouds: sky clear below 12,000 feet AGL
Weather: no significant weather observed at this time

METAR text: YBAS 172100Z AUTO 00000KT 9999 // NCD 15/01 Q1020 RF00.0/000.0
Conditions at: YBAS (ALICE SPRINGS AR, AU) observed 2100 UTC 17 April 2019
Temperature: 15.0°C (59°F)
Dewpoint: 1.0°C (34°F) [RH = 39%]
Pressure (altimeter): 30.12 inches Hg (1020.0 mb)
Winds: calm
Visibility: 6 or more miles (10+ km)
Ceiling: at least 12,000 feet AGL
Clouds: sky clear below 12,000 feet AGL
Weather: no significant weather observed at this time

Forecast for: YBAS (ALICE SPRINGS AR, AU)
Text: TAF YBAS 190521Z 1906/2006 06010KT CAVOK
Forecast period: 0600 to 0900 UTC 19 April 2019
Forecast type: FROM: standard forecast or significant change
Winds: from the ENE (60 degrees) at 12 MPH (10 knots; 5.1 m/s)
Visibility: 6 or more miles 10+ km)
Ceiling: unknown
Clouds: missing
Weather: NSW  (no significant weather)
Text: FM190900 07006KT CAVOK
Forecast period: 0900 to 2300 UTC 19 April 2019
Forecast type: FROM: standard forecast or significant change
Winds: from the ENE (70 degrees) at 7 MPH (6 knots; 3.1 m/s)
Visibility: 6 or more miles 10+ km)
Ceiling: unknown
Clouds: missing
Weather: NSW  (no significant weather)
Text: FM192300 03012KT CAVOK
Forecast period: 2300 UTC 19 April 2019 to 0600 UTC 20 April 2019
Forecast type: FROM: standard forecast or significant change
Winds: from the NNE (30 degrees) at 14 MPH (12 knots; 6.2 m/s)
Visibility: 6 or more miles 10+ km)
Ceiling: unknown
Clouds: missing
Weather: NSW  (no significant weather)